createdAt,value
2018-12-01T00:02:01.767Z,144.17
2018-12-01T00:04:31.988Z,130.77
2018-12-01T00:07:20.774Z,158.80
2018-12-01T00:09:50.862Z,138.43
2018-12-01T00:12:20.990Z,137.60
2018-12-01T00:14:51.108Z,140.70
2018-12-01T00:17:21.459Z,133.30
2018-12-01T00:19:51.666Z,104.90
2018-12-01T00:22:21.842Z,100.90
2018-12-01T00:24:52.452Z,171.90
2018-12-01T00:27:22.785Z,129.10
2018-12-01T00:29:52.951Z,113.17
2018-12-01T00:32:23.126Z,149.43
2018-12-01T00:34:53.184Z,136.80
2018-12-01T00:37:23.519Z,141.40
2018-12-01T00:39:53.590Z,108.27
2018-12-01T00:42:23.717Z,124.10
2018-12-01T00:44:53.790Z,107.37
2018-12-01T00:47:23.809Z,120.67
2018-12-01T00:49:54.034Z,106.63
2018-12-01T00:52:23.966Z,102.07
2018-12-01T00:54:54.048Z,119.20
2018-12-01T00:57:24.064Z,99.93
2018-12-01T00:59:54.229Z,103.83
2018-12-01T01:02:34.118Z,128.17
2018-12-01T01:05:05.616Z,77.33
2018-12-01T01:07:35.756Z,107.60
2018-12-01T01:10:08.545Z,117.53
2018-12-01T01:12:38.491Z,115.80
2018-12-01T01:15:08.811Z,135.43
2018-12-01T01:17:39.371Z,92.93
2018-12-01T01:20:13.394Z,121.13
2018-12-01T01:22:43.680Z,88.93
2018-12-01T01:25:13.937Z,114.60
2018-12-01T01:27:44.227Z,102.50
2018-12-01T01:30:21.660Z,123.43
2018-12-01T01:32:52.825Z,82.23
2018-12-01T01:35:22.898Z,118.77
2018-12-01T01:37:53.372Z,106.10
2018-12-01T01:40:23.432Z,124.67
2018-12-01T01:42:53.342Z,102.60
2018-12-01T01:45:24.233Z,141.00
2018-12-01T01:47:54.310Z,120.07
2018-12-01T01:50:24.551Z,121.67
2018-12-01T01:52:54.603Z,95.07
2018-12-01T01:55:24.790Z,127.13
2018-12-01T01:57:55.793Z,131.33
2018-12-01T02:00:26.067Z,129.70
2018-12-01T02:02:56.100Z,111.37
2018-12-01T02:05:26.171Z,112.43
2018-12-01T02:07:56.172Z,70.43
2018-12-01T02:10:26.191Z,90.93
2018-12-01T02:12:56.246Z,133.07
2018-12-01T02:15:26.251Z,129.13
2018-12-01T02:17:56.710Z,114.37
2018-12-01T02:20:26.741Z,118.00
2018-12-01T02:22:56.871Z,99.83
2018-12-01T02:25:27.149Z,127.27
2018-12-01T02:27:57.304Z,133.77
2018-12-01T02:30:27.442Z,150.97
2018-12-01T02:32:57.628Z,131.30
2018-12-01T02:35:28.737Z,147.97
2018-12-01T02:37:58.746Z,133.27
2018-12-01T02:40:28.891Z,136.53
2018-12-01T02:42:59.142Z,137.63
2018-12-01T02:45:39.841Z,146.40
2018-12-01T02:48:10.040Z,140.27
2018-12-01T02:50:40.338Z,134.23
2018-12-01T02:53:10.462Z,129.90
2018-12-01T02:55:40.507Z,108.03
2018-12-01T02:58:10.977Z,128.90
2018-12-01T03:00:41.110Z,123.03
2018-12-01T03:03:11.083Z,107.27
2018-12-01T03:05:41.527Z,116.17
2018-12-01T03:08:11.522Z,133.80
2018-12-01T03:10:41.618Z,157.30
2018-12-01T03:13:11.735Z,135.57
2018-12-01T03:15:41.980Z,153.27
2018-12-01T03:18:13.719Z,140.50
2018-12-01T03:20:42.002Z,139.20
2018-12-01T03:23:12.200Z,157.77
2018-12-01T03:25:42.755Z,138.37
2018-12-01T03:28:12.798Z,154.40
2018-12-01T03:30:42.978Z,116.97
2018-12-01T03:33:13.058Z,154.67
2018-12-01T03:35:43.507Z,121.63
2018-12-01T03:38:13.441Z,106.07
2018-12-01T03:40:48.423Z,129.70
2018-12-01T03:43:18.575Z,128.00
2018-12-01T03:45:49.091Z,148.03
2018-12-01T03:48:19.189Z,139.87
2018-12-01T03:50:49.584Z,144.03
2018-12-01T03:53:19.698Z,161.87
2018-12-01T03:55:50.355Z,129.73
2018-12-01T03:58:20.466Z,107.53
2018-12-01T04:00:50.909Z,159.80
2018-12-01T04:03:21.502Z,130.53
2018-12-01T04:05:51.622Z,129.07
2018-12-01T04:08:21.818Z,108.50
2018-12-01T04:10:51.922Z,101.73
2018-12-01T04:13:22.406Z,167.17
2018-12-01T04:15:52.504Z,150.93
2018-12-01T04:18:22.765Z,147.60
2018-12-01T04:20:52.782Z,138.87
2018-12-01T04:23:22.913Z,144.00
2018-12-01T04:25:53.282Z,155.43
2018-12-01T04:28:24.296Z,151.50
2018-12-01T04:30:54.443Z,149.53
2018-12-01T04:33:24.664Z,126.07
2018-12-01T04:35:54.996Z,162.63
2018-12-01T04:38:25.119Z,155.30
2018-12-01T04:40:55.381Z,134.73
2018-12-01T04:43:25.863Z,146.10
2018-12-01T04:45:56.050Z,125.87
2018-12-01T04:48:26.237Z,138.60
2018-12-01T04:50:56.139Z,150.33
2018-12-01T04:53:26.691Z,133.80
2018-12-01T04:55:57.033Z,95.63
2018-12-01T04:58:27.160Z,129.00
2018-12-01T05:00:57.265Z,123.17
2018-12-01T05:03:27.347Z,107.60
2018-12-01T05:05:57.481Z,120.23
2018-12-01T05:08:27.502Z,111.63
2018-12-01T05:10:57.745Z,117.80
2018-12-01T05:13:27.794Z,149.97
2018-12-01T05:15:58.578Z,145.50
2018-12-01T05:18:28.547Z,143.13
2018-12-01T05:20:58.616Z,110.50
2018-12-01T05:23:28.499Z,78.90
2018-12-01T05:25:58.560Z,76.57
2018-12-01T05:28:28.612Z,96.70
2018-12-01T05:30:58.664Z,115.37
2018-12-01T05:33:28.949Z,197.40
2018-12-01T05:35:59.001Z,146.57
2018-12-01T05:38:29.346Z,83.37
2018-12-01T05:40:59.507Z,139.37
2018-12-01T05:43:30.440Z,89.67
2018-12-01T05:46:00.697Z,106.20
2018-12-01T05:48:30.860Z,80.50
2018-12-01T05:51:00.937Z,94.07
2018-12-01T05:53:31.293Z,101.37
2018-12-01T05:56:01.413Z,115.53
2018-12-01T05:58:31.567Z,129.93
2018-12-01T06:01:01.644Z,102.00
2018-12-01T06:03:31.906Z,125.80
2018-12-01T06:06:01.882Z,129.60
2018-12-01T06:08:31.960Z,142.07
2018-12-01T06:11:02.011Z,125.53
2018-12-01T06:13:32.100Z,119.57
2018-12-01T06:16:02.596Z,131.67
2018-12-01T06:18:32.835Z,134.30
2018-12-01T06:21:02.867Z,146.83
2018-12-01T06:23:33.402Z,150.33
2018-12-01T06:26:05.038Z,158.87
2018-12-01T06:28:35.167Z,120.50
2018-12-01T06:31:05.673Z,121.30
2018-12-01T06:33:35.693Z,169.63
2018-12-01T06:36:05.742Z,223.93
2018-12-01T06:38:35.761Z,446.23
2018-12-01T06:41:05.953Z,439.20
2018-12-01T06:43:36.264Z,211.67
2018-12-01T06:46:06.574Z,179.10
2018-12-01T06:48:36.822Z,172.10
2018-12-01T06:51:07.240Z,186.03
2018-12-01T06:53:37.540Z,176.07
2018-12-01T06:56:07.600Z,163.23
2018-12-01T06:58:37.681Z,165.53
2018-12-01T07:01:08.188Z,167.50
2018-12-01T07:03:38.351Z,184.43
2018-12-01T07:06:08.370Z,176.03
2018-12-01T07:08:38.543Z,146.40
2018-12-01T07:11:09.064Z,53.73
2018-12-01T07:13:39.208Z,55.40
2018-12-01T07:16:09.441Z,59.00
2018-12-01T07:18:50.314Z,50.57
2018-12-01T07:21:20.482Z,63.23
2018-12-01T07:23:50.549Z,83.33
2018-12-01T07:26:20.846Z,86.27
2018-12-01T07:28:51.299Z,98.30
2018-12-01T07:31:21.381Z,70.50
2018-12-01T07:33:51.551Z,61.93
2018-12-01T07:36:21.754Z,53.40
2018-12-01T07:38:52.200Z,53.57
2018-12-01T07:41:22.398Z,51.20
2018-12-01T07:43:52.355Z,71.63
2018-12-01T07:46:22.498Z,70.00
2018-12-01T07:48:52.896Z,58.13
2018-12-01T07:51:22.797Z,108.37
2018-12-01T07:53:53.113Z,59.57
2018-12-01T07:56:23.390Z,61.50
2018-12-01T07:58:53.538Z,65.83
2018-12-01T08:01:23.879Z,64.27
2018-12-01T08:03:54.044Z,52.53
2018-12-01T08:06:24.213Z,50.40
2018-12-01T08:08:54.500Z,41.67
2018-12-01T08:11:25.006Z,37.00
2018-12-01T08:13:55.311Z,35.13
2018-12-01T08:16:26.241Z,33.70
2018-12-01T08:18:56.360Z,34.33
2018-12-01T08:21:26.641Z,39.10
2018-12-01T08:23:56.699Z,36.20
2018-12-01T08:26:27.099Z,40.33
2018-12-01T08:28:57.265Z,43.37
2018-12-01T08:31:27.091Z,40.33
2018-12-01T08:33:57.086Z,39.17
2018-12-01T08:36:27.369Z,39.10
2018-12-01T08:38:57.584Z,39.17
2018-12-01T08:41:27.846Z,36.53
2018-12-01T08:43:58.114Z,49.43
2018-12-01T08:46:28.197Z,45.90
2018-12-01T08:48:58.352Z,54.57
2018-12-01T08:51:28.315Z,55.20
2018-12-01T08:53:59.014Z,45.47
2018-12-01T08:56:29.503Z,59.13
2018-12-01T08:58:59.682Z,49.17
2018-12-01T09:01:30.800Z,42.13
2018-12-01T09:04:01.576Z,49.33
2018-12-01T09:06:31.728Z,43.17
2018-12-01T09:09:01.815Z,37.73
2018-12-01T09:11:31.893Z,32.03
2018-12-01T09:14:02.076Z,28.90
2018-12-01T09:16:32.223Z,20.53
2018-12-01T09:19:02.813Z,19.53
2018-12-01T09:21:32.955Z,22.70
2018-12-01T09:24:04.400Z,29.93
2018-12-01T09:26:34.740Z,19.40
2018-12-01T09:29:04.847Z,19.40
2018-12-01T09:31:35.105Z,19.97
2018-12-01T09:34:05.469Z,23.87
2018-12-01T09:36:35.649Z,21.60
2018-12-01T09:39:07.311Z,24.30
2018-12-01T09:41:37.337Z,20.70
2018-12-01T09:44:07.638Z,19.07
2018-12-01T09:46:37.670Z,19.87
2018-12-01T09:49:07.818Z,28.80
2018-12-01T09:51:38.364Z,23.00
2018-12-01T09:54:08.474Z,18.10
2018-12-01T09:56:38.726Z,18.30
2018-12-01T09:59:08.898Z,20.37
2018-12-01T10:01:39.021Z,18.93
2018-12-01T10:04:09.103Z,18.70
2018-12-01T10:06:39.287Z,19.37
2018-12-01T10:09:10.062Z,17.20
2018-12-01T10:11:40.112Z,17.90
2018-12-01T10:14:10.058Z,15.23
2018-12-01T10:16:40.254Z,11.40
2018-12-01T10:19:10.342Z,15.83
2018-12-01T10:21:40.513Z,16.97
2018-12-01T10:24:10.433Z,14.47
2018-12-01T10:26:40.731Z,16.07
2018-12-01T10:29:11.421Z,16.40
2018-12-01T10:31:41.592Z,23.23
2018-12-01T10:34:11.558Z,15.60
2018-12-01T10:36:41.642Z,13.30
2018-12-01T10:39:11.851Z,16.73
2018-12-01T10:41:42.160Z,16.77
2018-12-01T10:44:12.214Z,15.60
2018-12-01T10:46:42.457Z,17.07
2018-12-01T10:49:12.939Z,18.00
2018-12-01T10:51:43.115Z,18.97
2018-12-01T10:54:13.443Z,21.50
2018-12-01T10:56:43.743Z,21.00
2018-12-01T10:59:13.894Z,25.60
2018-12-01T11:01:50.086Z,24.37
2018-12-01T11:04:25.357Z,27.17
2018-12-01T11:06:55.790Z,23.67
2018-12-01T11:09:25.858Z,24.03
2018-12-01T11:11:56.109Z,23.10
2018-12-01T11:14:26.395Z,25.00
2018-12-01T11:16:57.010Z,23.10
2018-12-01T11:19:27.448Z,28.53
2018-12-01T11:21:57.771Z,29.60
2018-12-01T11:24:27.864Z,23.23
2018-12-01T11:26:58.534Z,22.97
2018-12-01T11:29:28.812Z,22.10
2018-12-01T11:31:58.873Z,21.70
2018-12-01T11:34:29.085Z,21.80
2018-12-01T11:36:59.254Z,22.10
2018-12-01T11:39:29.336Z,25.80
2018-12-01T11:41:59.865Z,22.70
2018-12-01T11:44:29.901Z,26.80
2018-12-01T11:46:59.931Z,19.37
2018-12-01T11:49:30.541Z,21.80
2018-12-01T11:52:00.623Z,23.53
2018-12-01T11:54:30.825Z,22.33
2018-12-01T11:57:01.398Z,25.10
2018-12-01T11:59:31.554Z,18.70
2018-12-01T12:02:01.991Z,19.77
2018-12-01T12:04:32.164Z,21.60
2018-12-01T12:07:02.377Z,18.00
2018-12-01T12:09:32.520Z,24.83
2018-12-01T12:12:02.611Z,22.70
2018-12-01T12:14:32.705Z,20.70
2018-12-01T12:17:02.836Z,24.03
2018-12-01T12:19:33.175Z,21.60
2018-12-01T12:22:03.500Z,21.70
2018-12-01T12:24:33.802Z,20.10
2018-12-01T12:27:04.219Z,19.10
2018-12-01T12:29:34.433Z,22.00
2018-12-01T12:32:04.922Z,24.47
2018-12-01T12:34:35.311Z,19.77
2018-12-01T12:37:05.747Z,19.53
2018-12-01T12:39:35.926Z,16.97
2018-12-01T12:42:06.382Z,19.97
2018-12-01T12:44:36.564Z,16.27
2018-12-01T12:47:06.882Z,17.90
2018-12-01T12:49:36.939Z,20.60
2018-12-01T12:52:07.344Z,16.80
2018-12-01T12:54:37.537Z,20.33
2018-12-01T12:57:07.472Z,14.23
2018-12-01T12:59:37.721Z,16.03
2018-12-01T13:02:07.825Z,19.30
2018-12-01T13:04:38.165Z,13.43
2018-12-01T13:07:08.474Z,15.27
2018-12-01T13:09:39.188Z,16.10
2018-12-01T13:12:09.390Z,13.00
2018-12-01T13:14:39.687Z,10.50
2018-12-01T13:17:09.850Z,9.23
2018-12-01T13:19:39.932Z,11.83
2018-12-01T13:22:10.032Z,8.27
2018-12-01T13:24:40.394Z,6.90
2018-12-01T13:27:10.783Z,5.37
2018-12-01T13:29:41.610Z,8.93
2018-12-01T13:32:11.459Z,7.23
2018-12-01T13:34:42.046Z,8.60
2018-12-01T13:37:12.321Z,7.50
2018-12-01T13:39:42.369Z,8.03
2018-12-01T13:42:12.681Z,7.37
2018-12-01T13:44:42.848Z,7.50
2018-12-01T13:47:12.942Z,6.80
2018-12-01T13:49:43.055Z,6.67
2018-12-01T13:52:13.396Z,7.77
2018-12-01T13:54:44.403Z,7.37
2018-12-01T13:57:14.729Z,9.83
2018-12-01T13:59:44.910Z,8.30
2018-12-01T14:02:14.881Z,7.77
2018-12-01T14:04:45.571Z,6.43
2018-12-01T14:07:15.660Z,8.30
2018-12-01T14:09:45.753Z,9.90
2018-12-01T14:12:16.004Z,8.00
2018-12-01T14:14:46.104Z,8.07
2018-12-01T14:17:16.182Z,27.60
2018-12-01T14:19:46.303Z,40.83
2018-12-01T14:22:16.510Z,17.30
2018-12-01T14:24:46.867Z,13.20
2018-12-01T14:27:17.078Z,8.03
2018-12-01T14:29:47.537Z,8.43
2018-12-01T14:32:17.578Z,14.33
2018-12-01T14:34:47.832Z,7.80
2018-12-01T14:37:18.035Z,10.03
2018-12-01T14:39:48.190Z,13.10
2018-12-01T14:42:18.564Z,11.00
2018-12-01T14:44:48.767Z,10.00
2018-12-01T14:47:18.934Z,24.40
2018-12-01T14:49:49.177Z,20.97
2018-12-01T14:52:22.571Z,12.90
2018-12-01T14:54:53.052Z,13.17
2018-12-01T14:57:23.080Z,13.10
2018-12-01T14:59:53.464Z,17.40
2018-12-01T15:02:23.704Z,17.73
2018-12-01T15:04:54.054Z,18.37
2018-12-01T15:07:24.825Z,16.60
2018-12-01T15:09:55.051Z,15.10
2018-12-01T15:12:25.259Z,19.90
2018-12-01T15:14:55.541Z,21.03
2018-12-01T15:17:25.861Z,19.77
2018-12-01T15:19:56.184Z,20.43
2018-12-01T15:22:26.405Z,15.70
2018-12-01T15:24:56.483Z,20.97
2018-12-01T15:27:26.812Z,22.80
2018-12-01T15:29:57.656Z,19.40
2018-12-01T15:32:27.752Z,18.97
2018-12-01T15:34:58.010Z,22.40
2018-12-01T15:37:28.380Z,29.93
2018-12-01T15:39:58.544Z,21.60
2018-12-01T15:42:28.599Z,21.40
2018-12-01T15:44:58.700Z,21.37
2018-12-01T15:47:28.738Z,23.53
2018-12-01T15:49:59.079Z,23.67
2018-12-01T15:52:29.235Z,25.40
2018-12-01T15:54:59.556Z,24.13
2018-12-01T15:57:30.176Z,27.13
2018-12-01T16:00:00.377Z,17.53
2018-12-01T16:02:30.476Z,20.73
2018-12-01T16:05:00.754Z,25.87
2018-12-01T16:07:30.970Z,19.47
2018-12-01T16:10:01.816Z,20.20
2018-12-01T16:12:32.027Z,26.40
2018-12-01T16:15:02.054Z,23.73
2018-12-01T16:17:32.370Z,19.40
2018-12-01T16:20:02.839Z,24.83
2018-12-01T16:22:32.998Z,25.10
2018-12-01T16:25:03.767Z,24.50
2018-12-01T16:27:34.147Z,25.37
2018-12-01T16:30:05.397Z,30.73
2018-12-01T16:32:35.707Z,27.83
2018-12-01T16:35:06.347Z,32.43
2018-12-01T16:37:36.926Z,23.97
2018-12-01T16:40:11.638Z,45.20
2018-12-01T16:42:42.212Z,25.80
2018-12-01T16:45:13.625Z,25.57
2018-12-01T16:47:43.986Z,22.90
2018-12-01T16:50:15.218Z,28.73
2018-12-01T16:52:46.172Z,16.30
2018-12-01T16:55:18.172Z,17.47
2018-12-01T16:57:48.125Z,15.10
2018-12-01T17:00:20.050Z,14.33
2018-12-01T17:02:51.832Z,18.20
2018-12-01T17:05:22.744Z,13.43
2018-12-01T17:07:53.155Z,14.43
2018-12-01T17:10:23.408Z,16.23
2018-12-01T17:12:54.879Z,14.43
2018-12-01T17:15:24.927Z,17.30
2018-12-01T17:17:55.067Z,19.90
2018-12-01T17:20:25.793Z,25.00
2018-12-01T17:22:58.140Z,31.60
2018-12-01T17:25:28.763Z,23.80
2018-12-01T17:27:59.719Z,26.63
2018-12-01T17:30:30.178Z,18.73
2018-12-01T17:33:00.677Z,20.43
2018-12-01T17:35:31.501Z,24.07
2018-12-01T17:38:05.342Z,14.73
2018-12-01T17:40:46.623Z,13.03
2018-12-01T17:43:18.602Z,13.23
2018-12-01T17:45:48.890Z,11.60
2018-12-01T17:48:19.142Z,15.67
2018-12-01T17:50:50.181Z,11.33
2018-12-01T17:53:20.467Z,10.50
2018-12-01T17:55:50.880Z,15.33
2018-12-01T17:58:21.052Z,17.97
2018-12-01T18:00:52.430Z,18.97
2018-12-01T18:03:22.499Z,12.57
2018-12-01T18:05:52.746Z,16.90
2018-12-01T18:08:24.583Z,11.80
2018-12-01T18:10:55.286Z,11.10
2018-12-01T18:13:25.612Z,11.63
2018-12-01T18:15:55.872Z,16.90
2018-12-01T18:18:26.081Z,21.37
2018-12-01T18:20:57.071Z,29.63
2018-12-01T18:23:27.840Z,28.10
2018-12-01T18:25:58.426Z,22.07
2018-12-01T18:28:34.771Z,21.80
2018-12-01T18:31:15.302Z,16.87
2018-12-01T18:33:47.805Z,14.67
2018-12-01T18:36:18.234Z,21.97
2018-12-01T18:38:50.044Z,18.13
2018-12-01T18:41:20.309Z,20.70
2018-12-01T18:43:50.883Z,15.77
2018-12-01T18:46:21.647Z,12.00
2018-12-01T18:48:52.228Z,9.50
2018-12-01T18:51:22.756Z,17.23
2018-12-01T18:53:53.088Z,16.90
2018-12-01T18:56:23.614Z,11.13
2018-12-01T18:58:54.338Z,9.53
2018-12-01T19:01:25.065Z,13.50
2018-12-01T19:03:55.941Z,11.10
2018-12-01T19:06:26.902Z,15.87
2018-12-01T19:08:57.725Z,17.03
2018-12-01T19:11:28.147Z,11.70
2018-12-01T19:13:58.492Z,11.17
2018-12-01T19:16:28.752Z,13.10
2018-12-01T19:18:59.628Z,15.77
2018-12-01T19:21:29.861Z,13.73
2018-12-01T19:24:00.477Z,13.17
2018-12-01T19:26:31.552Z,10.70
2018-12-01T19:29:02.295Z,14.47
2018-12-01T19:31:32.816Z,14.13
2018-12-01T19:34:03.365Z,19.60
2018-12-01T19:36:34.235Z,13.50
2018-12-01T19:39:05.807Z,12.30
2018-12-01T19:41:36.329Z,21.23
2018-12-01T19:44:07.164Z,19.87
2018-12-01T19:46:37.758Z,32.87
2018-12-01T19:49:08.301Z,10.80
2018-12-01T19:51:38.395Z,13.70
2018-12-01T19:54:08.821Z,11.03
2018-12-01T19:56:39.219Z,16.40
2018-12-01T19:59:09.596Z,14.27
2018-12-01T20:01:39.743Z,9.00
2018-12-01T20:04:09.883Z,10.50
2018-12-01T20:06:41.069Z,9.57
2018-12-01T20:09:11.929Z,10.20
2018-12-01T20:11:43.104Z,18.53
2018-12-01T20:14:16.790Z,9.90
2018-12-01T20:16:50.407Z,6.83
2018-12-01T20:19:20.591Z,6.17
2018-12-01T20:21:50.646Z,8.90
2018-12-01T20:24:21.126Z,8.63
2018-12-01T20:26:51.360Z,7.60
2018-12-01T20:29:21.815Z,6.63
2018-12-01T20:31:52.506Z,9.97
2018-12-01T20:34:22.844Z,11.20
2018-12-01T20:36:57.089Z,7.17
2018-12-01T20:39:31.705Z,13.30
2018-12-01T20:42:02.195Z,26.53
2018-12-01T20:44:32.515Z,16.63
2018-12-01T20:47:04.280Z,14.27
2018-12-01T20:49:34.484Z,11.07
2018-12-01T20:52:05.358Z,14.23
2018-12-01T20:54:40.250Z,13.57
2018-12-01T20:57:14.280Z,14.67
2018-12-01T20:59:44.771Z,13.53
2018-12-01T21:02:14.903Z,14.50
2018-12-01T21:04:44.915Z,11.90
2018-12-01T21:07:14.931Z,14.93
2018-12-01T21:09:44.943Z,19.07
2018-12-01T21:12:15.632Z,14.07
2018-12-01T21:14:45.713Z,9.53
2018-12-01T21:17:15.640Z,8.83
2018-12-01T21:19:45.522Z,12.63
2018-12-01T21:22:15.533Z,18.07
2018-12-01T21:24:45.912Z,11.80
2018-12-01T21:27:15.902Z,10.13
2018-12-01T21:29:46.170Z,10.33
2018-12-01T21:32:16.515Z,15.83
2018-12-01T21:34:46.663Z,12.00
2018-12-01T21:37:16.882Z,7.30
2018-12-01T21:39:46.956Z,10.80
2018-12-01T21:42:17.018Z,10.63
2018-12-01T21:44:47.281Z,12.07
2018-12-01T21:47:17.334Z,8.90
2018-12-01T21:49:47.563Z,8.97
2018-12-01T21:52:17.604Z,9.17
2018-12-01T21:54:47.720Z,7.97
2018-12-01T21:57:17.824Z,8.50
2018-12-01T21:59:48.085Z,8.20
2018-12-01T22:02:18.450Z,6.20
2018-12-01T22:04:48.857Z,5.37
2018-12-01T22:07:19.087Z,4.20
2018-12-01T22:09:49.232Z,3.50
2018-12-01T22:12:20.553Z,7.93
2018-12-01T22:14:50.702Z,4.87
2018-12-01T22:17:20.778Z,8.70
2018-12-01T22:19:51.197Z,6.30
2018-12-01T22:22:21.493Z,2.90
2018-12-01T22:24:51.586Z,5.93
2018-12-01T22:27:21.644Z,3.40
2018-12-01T22:29:52.461Z,5.40
2018-12-01T22:32:22.771Z,5.77
2018-12-01T22:34:52.989Z,5.03
2018-12-01T22:37:23.313Z,4.60
2018-12-01T22:39:53.567Z,3.73
2018-12-01T22:42:23.931Z,3.27
2018-12-01T22:44:54.176Z,5.03
2018-12-01T22:47:24.355Z,4.30
2018-12-01T22:49:54.524Z,5.17
2018-12-01T22:52:24.536Z,3.40
2018-12-01T22:54:54.706Z,5.50
2018-12-01T22:57:25.076Z,3.20
2018-12-01T22:59:55.154Z,6.33
2018-12-01T23:02:25.452Z,16.80
2018-12-01T23:04:56.087Z,3.37
2018-12-01T23:07:26.175Z,10.03
2018-12-01T23:09:56.083Z,14.03
2018-12-01T23:12:26.396Z,53.63
2018-12-01T23:14:56.508Z,28.43
2018-12-01T23:17:26.767Z,14.23
2018-12-01T23:19:56.894Z,7.53
2018-12-01T23:22:26.807Z,11.57
2018-12-01T23:24:56.960Z,3.87
2018-12-01T23:27:26.998Z,4.40
2018-12-01T23:29:57.422Z,3.03
2018-12-01T23:32:27.630Z,3.50
2018-12-01T23:34:57.760Z,3.10
2018-12-01T23:37:27.684Z,3.83
2018-12-01T23:39:57.676Z,2.50
2018-12-01T23:42:27.741Z,2.20
2018-12-01T23:44:57.883Z,3.97
2018-12-01T23:47:27.867Z,3.00
2018-12-01T23:49:58.498Z,3.23
2018-12-01T23:52:28.782Z,3.50
2018-12-01T23:54:59.135Z,2.73
2018-12-01T23:57:29.324Z,2.87
2018-12-01T23:59:59.505Z,10.77
